createdAt,value
2018-07-07T00:01:35.708Z,85.23
2018-07-07T00:04:08.201Z,67.50
2018-07-07T00:06:40.018Z,63.07
2018-07-07T00:09:12.086Z,74.37
2018-07-07T00:11:43.871Z,68.63
2018-07-07T00:14:16.106Z,63.90
2018-07-07T00:16:47.892Z,59.20
2018-07-07T00:19:19.603Z,65.00
2018-07-07T00:21:51.506Z,76.77
2018-07-07T00:24:23.463Z,61.53
2018-07-07T00:26:55.472Z,57.50
2018-07-07T00:29:27.578Z,67.40
2018-07-07T00:31:59.635Z,77.67
2018-07-07T00:34:31.535Z,70.63
2018-07-07T00:37:03.135Z,66.07
2018-07-07T00:39:36.920Z,57.97
2018-07-07T00:42:08.827Z,68.30
2018-07-07T00:44:41.302Z,67.40
2018-07-07T00:47:12.990Z,57.87
2018-07-07T00:49:44.975Z,56.97
2018-07-07T00:52:16.855Z,60.63
2018-07-07T00:54:48.514Z,67.43
2018-07-07T00:57:20.498Z,68.67
2018-07-07T00:59:52.927Z,78.20
2018-07-07T01:02:25.034Z,72.10
2018-07-07T01:04:57.266Z,69.03
2018-07-07T01:07:29.122Z,75.20
2018-07-07T01:10:01.270Z,59.40
2018-07-07T01:12:32.903Z,69.17
2018-07-07T01:15:04.991Z,74.00
2018-07-07T01:17:37.090Z,74.87
2018-07-07T01:20:08.953Z,72.90
2018-07-07T01:22:40.754Z,64.43
2018-07-07T01:25:12.947Z,80.00
2018-07-07T01:27:44.631Z,66.30
2018-07-07T01:30:16.666Z,82.00
2018-07-07T01:32:48.539Z,74.40
2018-07-07T01:35:20.579Z,68.93
2018-07-07T01:37:52.258Z,77.90
2018-07-07T01:40:25.522Z,54.67
2018-07-07T01:42:57.373Z,80.30
2018-07-07T01:45:28.582Z,79.80
2018-07-07T01:48:00.236Z,68.77
2018-07-07T01:50:32.295Z,58.83
2018-07-07T01:53:04.223Z,63.13
2018-07-07T01:55:36.393Z,63.73
2018-07-07T01:58:20.522Z,67.40
2018-07-07T02:00:54.294Z,55.33
2018-07-07T02:03:25.431Z,77.87
2018-07-07T02:05:57.386Z,67.73
2018-07-07T02:08:29.342Z,74.47
2018-07-07T02:11:01.312Z,59.53
2018-07-07T02:13:33.187Z,64.90
2018-07-07T02:16:04.996Z,70.63
2018-07-07T02:18:36.831Z,70.23
2018-07-07T02:21:08.534Z,70.80
2018-07-07T02:23:40.422Z,68.93
2018-07-07T02:26:12.247Z,90.23
2018-07-07T02:28:44.207Z,69.77
2018-07-07T02:31:16.427Z,79.70
2018-07-07T02:33:48.241Z,74.33
2018-07-07T02:36:19.321Z,62.30
2018-07-07T02:38:50.978Z,66.30
2018-07-07T02:41:24.091Z,75.83
2018-07-07T02:43:55.947Z,79.83
2018-07-07T02:46:28.138Z,69.33
2018-07-07T02:49:00.317Z,54.00
2018-07-07T02:51:32.204Z,53.70
2018-07-07T02:54:03.850Z,70.23
2018-07-07T02:56:36.046Z,82.67
2018-07-07T02:59:07.910Z,74.90
2018-07-07T03:01:39.970Z,79.47
2018-07-07T03:04:11.806Z,78.43
2018-07-07T03:06:43.707Z,78.63
2018-07-07T03:09:15.741Z,83.10
2018-07-07T03:11:48.161Z,85.97
2018-07-07T03:14:19.838Z,65.23
2018-07-07T03:16:52.034Z,63.53
2018-07-07T03:19:24.057Z,75.70
2018-07-07T03:21:56.218Z,77.30
2018-07-07T03:24:28.139Z,81.33
2018-07-07T03:26:59.907Z,71.37
2018-07-07T03:29:32.250Z,85.67
2018-07-07T03:32:04.461Z,67.80
2018-07-07T03:34:36.314Z,78.53
2018-07-07T03:37:08.389Z,95.20
2018-07-07T03:39:40.326Z,84.90
2018-07-07T03:42:13.595Z,109.03
2018-07-07T03:44:45.467Z,106.63
2018-07-07T03:47:17.419Z,86.03
2018-07-07T03:49:49.060Z,82.87
2018-07-07T03:52:20.948Z,104.27
2018-07-07T03:54:53.325Z,93.23
2018-07-07T03:57:25.800Z,90.90
2018-07-07T03:59:57.410Z,104.37
2018-07-07T04:02:29.285Z,113.03
2018-07-07T04:05:01.080Z,96.30
2018-07-07T04:07:33.084Z,101.40
2018-07-07T04:10:04.936Z,125.80
2018-07-07T04:12:36.094Z,112.73
2018-07-07T04:15:08.265Z,108.57
2018-07-07T04:17:40.459Z,136.60
2018-07-07T04:20:12.200Z,105.87
2018-07-07T04:22:44.187Z,94.10
2018-07-07T04:25:15.066Z,104.20
2018-07-07T04:27:47.282Z,95.50
2018-07-07T04:30:19.434Z,97.10
2018-07-07T04:32:51.647Z,129.80
2018-07-07T04:35:23.359Z,101.47
2018-07-07T04:37:55.472Z,99.50
2018-07-07T04:40:27.474Z,126.87
2018-07-07T04:43:01.893Z,122.10
2018-07-07T04:45:34.522Z,118.57
2018-07-07T04:48:06.660Z,134.00
2018-07-07T04:50:39.106Z,123.37
2018-07-07T04:53:11.227Z,140.90
2018-07-07T04:55:43.779Z,147.50
2018-07-07T04:58:17.524Z,129.67
2018-07-07T05:00:49.499Z,135.63
2018-07-07T05:03:20.715Z,148.57
2018-07-07T05:05:52.466Z,156.63
2018-07-07T05:08:23.833Z,109.87
2018-07-07T05:10:56.271Z,132.80
2018-07-07T05:13:28.553Z,165.23
2018-07-07T05:16:00.421Z,154.63
2018-07-07T05:18:32.299Z,145.38
2018-07-07T05:21:03.953Z,140.43
2018-07-07T05:23:36.425Z,134.10
2018-07-07T05:26:08.324Z,163.25
2018-07-07T05:28:40.208Z,131.20
2018-07-07T05:31:12.380Z,145.87
2018-07-07T05:33:44.698Z,128.93
2018-07-07T05:36:16.532Z,137.82
2018-07-07T05:38:48.677Z,118.05
2018-07-07T05:41:21.386Z,122.50
2018-07-07T05:43:58.237Z,152.45
2018-07-07T05:46:29.476Z,140.92
2018-07-07T05:49:02.092Z,147.82
2018-07-07T05:51:34.319Z,147.25
2018-07-07T05:54:06.463Z,148.28
2018-07-07T05:56:37.455Z,165.15
2018-07-07T05:59:09.258Z,165.20
2018-07-07T06:01:40.198Z,163.12
2018-07-07T06:04:12.182Z,147.72
2018-07-07T06:06:44.252Z,145.75
2018-07-07T06:09:16.586Z,151.75
2018-07-07T06:11:48.306Z,155.15
2018-07-07T06:14:20.805Z,169.45
2018-07-07T06:16:52.663Z,160.18
2018-07-07T06:19:24.738Z,166.70
2018-07-07T06:21:56.751Z,175.62
2018-07-07T06:24:28.907Z,156.37
2018-07-07T06:27:00.640Z,186.43
2018-07-07T06:29:32.823Z,167.50
2018-07-07T06:32:04.587Z,169.05
2018-07-07T06:34:36.850Z,162.15
2018-07-07T06:37:16.046Z,175.53
2018-07-07T06:40:04.603Z,157.18
2018-07-07T06:42:43.628Z,175.75
2018-07-07T06:45:21.313Z,164.32
2018-07-07T06:48:05.274Z,159.75
2018-07-07T06:50:44.797Z,149.42
2018-07-07T06:53:30.354Z,164.07
2018-07-07T06:56:04.218Z,159.87
2018-07-07T06:58:47.261Z,168.62
2018-07-07T07:01:20.385Z,155.27
2018-07-07T07:03:58.857Z,185.00
2018-07-07T07:06:39.786Z,172.13
2018-07-07T07:09:17.495Z,159.48
2018-07-07T07:12:00.119Z,128.00
2018-07-07T07:14:32.282Z,162.97
2018-07-07T07:17:04.287Z,129.63
2018-07-07T07:19:47.813Z,138.03
2018-07-07T07:22:26.754Z,141.57
2018-07-07T07:24:59.199Z,146.50
2018-07-07T07:27:31.386Z,155.00
2018-07-07T07:30:03.043Z,146.47
2018-07-07T07:32:35.384Z,136.03
2018-07-07T07:35:07.543Z,140.43
2018-07-07T07:37:39.465Z,124.33
2018-07-07T07:40:11.138Z,128.50
2018-07-07T07:42:43.314Z,122.05
2018-07-07T07:45:14.254Z,132.05
2018-07-07T07:47:47.679Z,123.72
2018-07-07T07:50:19.578Z,122.70
2018-07-07T07:52:51.847Z,141.28
2018-07-07T07:55:23.689Z,127.17
2018-07-07T07:57:56.109Z,152.43
2018-07-07T08:00:27.882Z,146.20
2018-07-07T08:02:59.966Z,166.12
2018-07-07T08:05:31.788Z,129.90
2018-07-07T08:08:03.626Z,125.10
2018-07-07T08:10:35.563Z,119.87
2018-07-07T08:13:08.527Z,147.80
2018-07-07T08:15:40.352Z,139.18
2018-07-07T08:18:12.568Z,152.20
2018-07-07T08:20:44.345Z,148.72
2018-07-07T08:23:16.078Z,122.78
2018-07-07T08:25:47.870Z,141.65
2018-07-07T08:28:20.145Z,142.15
2018-07-07T08:30:51.538Z,121.40
2018-07-07T08:33:23.838Z,133.05
2018-07-07T08:35:56.166Z,143.72
2018-07-07T08:38:28.215Z,115.12
2018-07-07T08:41:00.090Z,140.50
2018-07-07T08:43:32.212Z,113.75
2018-07-07T08:46:04.936Z,114.90
2018-07-07T08:48:37.082Z,120.50
2018-07-07T08:51:08.667Z,110.55
2018-07-07T08:53:40.670Z,120.87
2018-07-07T08:56:12.414Z,143.52
2018-07-07T08:58:44.345Z,118.62
2018-07-07T09:01:16.397Z,107.50
2018-07-07T09:03:48.307Z,123.47
2018-07-07T09:06:20.064Z,136.87
2018-07-07T09:08:52.236Z,118.17
2018-07-07T09:11:23.911Z,117.47
2018-07-07T09:13:56.027Z,109.67
2018-07-07T09:16:27.854Z,116.28
2018-07-07T09:18:59.970Z,131.20
2018-07-07T09:21:31.598Z,103.35
2018-07-07T09:24:03.777Z,125.05
2018-07-07T09:26:35.883Z,116.15
2018-07-07T09:29:08.036Z,116.10
2018-07-07T09:31:39.670Z,104.97
2018-07-07T09:34:11.747Z,104.35
2018-07-07T09:36:44.058Z,105.75
2018-07-07T09:39:15.971Z,124.85
2018-07-07T09:41:47.629Z,124.85
2018-07-07T09:44:19.628Z,111.03
2018-07-07T09:46:53.683Z,123.23
2018-07-07T09:49:26.068Z,149.18
2018-07-07T09:51:58.155Z,108.20
2018-07-07T09:54:30.090Z,96.17
2018-07-07T09:57:02.101Z,117.42
2018-07-07T09:59:34.438Z,108.95
2018-07-07T10:02:06.510Z,102.58
2018-07-07T10:04:38.967Z,108.83
2018-07-07T10:07:10.738Z,109.92
2018-07-07T10:09:42.490Z,113.08
2018-07-07T10:12:14.211Z,98.58
2018-07-07T10:14:46.463Z,93.35
2018-07-07T10:17:18.333Z,95.95
2018-07-07T10:19:50.188Z,84.45
2018-07-07T10:22:22.104Z,102.45
2018-07-07T10:24:54.027Z,110.12
2018-07-07T10:27:25.995Z,107.92
2018-07-07T10:29:58.370Z,128.23
2018-07-07T10:32:30.181Z,112.85
2018-07-07T10:35:02.177Z,98.50
2018-07-07T10:37:33.983Z,109.55
2018-07-07T10:40:06.205Z,99.93
2018-07-07T10:42:38.124Z,88.15
2018-07-07T10:45:10.251Z,94.52
2018-07-07T10:47:43.452Z,101.47
2018-07-07T10:50:15.584Z,87.90
2018-07-07T10:52:47.439Z,107.50
2018-07-07T10:55:19.527Z,100.02
2018-07-07T10:57:51.697Z,118.10
2018-07-07T11:00:24.104Z,125.12
2018-07-07T11:02:55.937Z,109.75
2018-07-07T11:05:28.205Z,114.88
2018-07-07T11:08:00.207Z,115.37
2018-07-07T11:10:32.519Z,146.85
2018-07-07T11:13:03.441Z,130.03
2018-07-07T11:15:35.395Z,104.77
2018-07-07T11:18:07.034Z,136.03
2018-07-07T11:20:39.280Z,117.45
2018-07-07T11:23:11.038Z,130.00
2018-07-07T11:25:43.094Z,101.47
2018-07-07T11:28:14.819Z,111.17
2018-07-07T11:30:46.729Z,119.33
2018-07-07T11:33:18.579Z,125.37
2018-07-07T11:35:50.715Z,131.32
2018-07-07T11:38:22.809Z,138.55
2018-07-07T11:40:55.368Z,108.40
2018-07-07T11:43:27.547Z,109.70
2018-07-07T11:46:00.114Z,112.50
2018-07-07T11:48:32.706Z,125.15
2018-07-07T11:51:04.858Z,121.65
2018-07-07T11:53:36.674Z,109.63
2018-07-07T11:56:08.708Z,105.27
2018-07-07T11:58:40.683Z,124.72
2018-07-07T12:01:12.650Z,114.55
2018-07-07T12:03:48.914Z,105.60
2018-07-07T12:06:33.841Z,114.60
2018-07-07T12:09:06.757Z,112.23
2018-07-07T12:11:39.017Z,89.30
2018-07-07T12:14:10.092Z,125.20
2018-07-07T12:16:42.203Z,107.03
2018-07-07T12:19:14.114Z,108.80
2018-07-07T12:21:46.262Z,110.93
2018-07-07T12:24:18.296Z,117.13
2018-07-07T12:26:49.463Z,94.93
2018-07-07T12:29:23.721Z,87.37
2018-07-07T12:31:55.779Z,112.90
2018-07-07T12:34:27.750Z,117.17
2018-07-07T12:36:59.648Z,112.90
2018-07-07T12:39:31.536Z,110.30
2018-07-07T12:42:03.751Z,97.70
2018-07-07T12:44:34.733Z,116.57
2018-07-07T12:47:08.463Z,109.03
2018-07-07T12:49:41.782Z,105.90
2018-07-07T12:52:13.823Z,107.07
2018-07-07T12:54:45.562Z,108.00
2018-07-07T12:57:17.560Z,121.47
2018-07-07T12:59:49.514Z,92.80
2018-07-07T13:02:21.510Z,124.20
2018-07-07T13:04:53.255Z,96.20
2018-07-07T13:07:25.119Z,110.07
2018-07-07T13:09:56.950Z,114.50
2018-07-07T13:12:28.103Z,91.87
2018-07-07T13:14:59.180Z,98.87
2018-07-07T13:17:31.211Z,96.60
2018-07-07T13:20:02.891Z,98.13
2018-07-07T13:22:34.883Z,88.70
2018-07-07T13:25:05.655Z,93.57
2018-07-07T13:27:37.442Z,102.20
2018-07-07T13:30:09.470Z,107.50
2018-07-07T13:32:41.696Z,79.17
2018-07-07T13:35:13.372Z,122.80
2018-07-07T13:37:45.425Z,97.23
2018-07-07T13:40:17.202Z,115.20
2018-07-07T13:42:49.015Z,93.07
2018-07-07T13:45:20.929Z,82.40
2018-07-07T13:47:53.082Z,116.83
2018-07-07T13:50:26.043Z,102.07
2018-07-07T13:52:58.127Z,94.90
2018-07-07T13:55:30.108Z,102.27
2018-07-07T13:58:02.098Z,110.07
2018-07-07T14:00:34.086Z,128.37
2018-07-07T14:03:05.864Z,105.40
2018-07-07T14:05:37.477Z,91.53
2018-07-07T14:08:09.675Z,108.60
2018-07-07T14:10:41.454Z,102.27
2018-07-07T14:13:13.588Z,91.27
2018-07-07T14:15:45.355Z,101.50
2018-07-07T14:18:17.085Z,102.60
2018-07-07T14:20:48.869Z,128.20
2018-07-07T14:23:21.002Z,108.53
2018-07-07T14:25:52.880Z,110.70
2018-07-07T14:28:24.982Z,95.97
2018-07-07T14:30:55.946Z,124.77
2018-07-07T14:33:27.827Z,98.20
2018-07-07T14:35:59.844Z,107.17
2018-07-07T14:38:36.331Z,111.13
2018-07-07T14:41:14.317Z,125.40
2018-07-07T14:43:57.086Z,115.30
2018-07-07T14:46:29.793Z,106.00
2018-07-07T14:49:02.094Z,99.20
2018-07-07T14:51:35.031Z,92.47
2018-07-07T14:54:07.142Z,136.90
2018-07-07T14:56:38.962Z,119.33
2018-07-07T14:59:11.186Z,101.33
2018-07-07T15:01:42.862Z,92.33
2018-07-07T15:04:14.886Z,112.37
2018-07-07T15:06:46.651Z,113.50
2018-07-07T15:09:18.984Z,110.30
2018-07-07T15:11:55.271Z,100.33
2018-07-07T15:14:26.208Z,104.43
2018-07-07T15:16:57.914Z,114.87
2018-07-07T15:19:29.950Z,99.63
2018-07-07T15:22:01.970Z,97.03
2018-07-07T15:24:34.351Z,121.13
2018-07-07T15:27:06.219Z,109.57
2018-07-07T15:29:38.156Z,101.33
2018-07-07T15:32:09.958Z,99.90
2018-07-07T15:34:41.736Z,99.40
2018-07-07T15:37:13.596Z,100.77
2018-07-07T15:39:44.654Z,110.20
2018-07-07T15:42:16.502Z,128.93
2018-07-07T15:44:48.506Z,101.87
2018-07-07T15:47:20.232Z,108.77
2018-07-07T15:49:51.976Z,110.83
2018-07-07T15:52:25.585Z,108.07
2018-07-07T15:54:57.786Z,108.83
2018-07-07T15:57:29.746Z,108.80
2018-07-07T16:00:01.745Z,111.30
2018-07-07T16:02:33.694Z,108.47
2018-07-07T16:05:05.743Z,89.37
2018-07-07T16:07:37.739Z,114.40
2018-07-07T16:10:10.481Z,101.10
2018-07-07T16:12:42.819Z,102.40
2018-07-07T16:15:15.068Z,103.40
2018-07-07T16:17:47.146Z,112.00
2018-07-07T16:20:19.212Z,116.27
2018-07-07T16:22:50.898Z,102.50
2018-07-07T16:25:23.087Z,112.60
2018-07-07T16:27:54.887Z,103.47
2018-07-07T16:30:28.217Z,95.60
2018-07-07T16:32:59.932Z,99.60
2018-07-07T16:35:31.975Z,95.37
2018-07-07T16:38:03.721Z,120.57
2018-07-07T16:40:36.472Z,107.87
2018-07-07T16:43:08.702Z,108.90
2018-07-07T16:45:40.772Z,110.90
2018-07-07T16:48:13.107Z,117.93
2018-07-07T16:50:45.672Z,104.23
2018-07-07T16:53:18.582Z,114.73
2018-07-07T16:55:51.401Z,103.03
2018-07-07T16:58:23.414Z,93.67
2018-07-07T17:00:56.222Z,121.80
2018-07-07T17:03:28.788Z,119.33
2018-07-07T17:06:01.468Z,106.20
2018-07-07T17:08:34.626Z,98.00
2018-07-07T17:11:05.922Z,109.27
2018-07-07T17:13:38.228Z,116.53
2018-07-07T17:16:10.516Z,95.03
2018-07-07T17:18:42.848Z,104.30
2018-07-07T17:21:15.891Z,112.90
2018-07-07T17:23:47.421Z,98.87
2018-07-07T17:26:19.597Z,106.73
2018-07-07T17:28:50.311Z,103.40
2018-07-07T17:31:21.394Z,111.37
2018-07-07T17:33:55.370Z,108.47
2018-07-07T17:36:29.014Z,98.50
2018-07-07T17:39:03.950Z,138.43
2018-07-07T17:41:37.227Z,103.93
2018-07-07T17:44:09.679Z,121.07
2018-07-07T17:46:42.426Z,98.83
2018-07-07T17:49:14.818Z,103.20
2018-07-07T17:51:47.130Z,112.10
2018-07-07T17:54:21.734Z,101.33
2018-07-07T17:56:57.487Z,119.87
2018-07-07T17:59:30.835Z,89.27
2018-07-07T18:02:02.952Z,92.23
2018-07-07T18:04:36.059Z,90.40
2018-07-07T18:07:09.091Z,125.20
2018-07-07T18:09:39.955Z,95.20
2018-07-07T18:12:12.478Z,119.37
2018-07-07T18:14:44.255Z,106.10
2018-07-07T18:17:16.039Z,101.20
2018-07-07T18:19:48.143Z,86.67
2018-07-07T18:22:21.071Z,101.67
2018-07-07T18:24:54.890Z,104.10
2018-07-07T18:27:27.070Z,95.80
2018-07-07T18:29:59.086Z,105.37
2018-07-07T18:32:31.604Z,118.00
2018-07-07T18:35:03.692Z,108.13
2018-07-07T18:37:35.823Z,102.30
2018-07-07T18:40:08.241Z,91.77
2018-07-07T18:42:40.208Z,107.40
2018-07-07T18:45:12.305Z,101.70
2018-07-07T18:47:45.724Z,87.37
2018-07-07T18:50:20.749Z,107.10
2018-07-07T18:52:54.427Z,128.13
2018-07-07T18:55:32.276Z,104.43
2018-07-07T18:58:04.540Z,98.00
2018-07-07T19:00:36.624Z,89.00
2018-07-07T19:03:08.814Z,90.90
2018-07-07T19:05:40.798Z,96.87
2018-07-07T19:08:12.566Z,109.13
2018-07-07T19:10:44.329Z,97.93
2018-07-07T19:13:16.698Z,107.93
2018-07-07T19:15:48.405Z,100.70
2018-07-07T19:18:20.458Z,119.97
2018-07-07T19:20:56.750Z,112.37
2018-07-07T19:26:11.608Z,82.40
2018-07-07T19:28:43.443Z,109.13
2018-07-07T19:31:15.642Z,110.50
2018-07-07T19:33:52.096Z,104.23
2018-07-07T19:36:28.639Z,102.20
2018-07-07T19:39:00.514Z,94.17
2018-07-07T19:41:32.661Z,97.20
2018-07-07T19:44:04.667Z,114.33
2018-07-07T19:46:36.806Z,107.03
2018-07-07T19:49:08.642Z,100.17
2018-07-07T19:51:40.764Z,86.97
2018-07-07T19:54:12.616Z,102.13
2018-07-07T19:56:45.362Z,99.63
2018-07-07T19:59:17.222Z,115.07
2018-07-07T20:01:49.272Z,104.23
2018-07-07T20:04:21.192Z,94.63
2018-07-07T20:06:53.110Z,105.47
2018-07-07T20:09:24.819Z,105.40
2018-07-07T20:11:56.757Z,101.10
2018-07-07T20:14:28.603Z,105.93
2018-07-07T20:17:02.011Z,120.50
2018-07-07T20:19:50.586Z,99.07
2018-07-07T20:22:21.708Z,113.43
2018-07-07T20:24:53.541Z,105.20
2018-07-07T20:27:31.370Z,121.03
2018-07-07T20:30:02.323Z,117.10
2018-07-07T20:32:39.426Z,132.70
2018-07-07T20:35:11.254Z,101.83
2018-07-07T20:37:43.319Z,111.90
2018-07-07T20:40:15.316Z,126.93
2018-07-07T20:42:48.031Z,104.87
2018-07-07T20:45:20.067Z,107.77
2018-07-07T20:47:52.046Z,112.03
2018-07-07T20:50:23.871Z,144.80
2018-07-07T20:52:56.366Z,128.27
2018-07-07T20:55:27.147Z,107.97
2018-07-07T20:57:59.209Z,111.23
2018-07-07T21:00:30.846Z,114.40
2018-07-07T21:03:02.169Z,118.37
2018-07-07T21:05:33.417Z,131.57
2018-07-07T21:08:05.653Z,106.37
2018-07-07T21:10:37.567Z,119.63
2018-07-07T21:13:09.470Z,103.47
2018-07-07T21:15:41.504Z,106.50
2018-07-07T21:18:13.682Z,103.83
2018-07-07T21:20:45.611Z,97.87
2018-07-07T21:23:17.419Z,119.30
2018-07-07T21:25:49.140Z,113.50
2018-07-07T21:28:22.538Z,115.33
2018-07-07T21:30:54.509Z,122.80
2018-07-07T21:33:26.582Z,119.53
2018-07-07T21:35:58.813Z,121.07
2018-07-07T21:38:30.774Z,129.10
2018-07-07T21:41:02.595Z,104.47
2018-07-07T21:43:34.695Z,113.77
2018-07-07T21:46:06.628Z,105.80
2018-07-07T21:48:38.687Z,106.00
2018-07-07T21:51:10.403Z,104.93
2018-07-07T21:53:42.691Z,106.97
2018-07-07T21:56:14.570Z,118.63
2018-07-07T21:58:46.827Z,109.43
2018-07-07T22:01:39.569Z,122.37
2018-07-07T22:04:16.935Z,109.17
2018-07-07T22:06:54.284Z,131.50
2018-07-07T22:09:26.514Z,115.30
2018-07-07T22:11:58.654Z,114.70
2018-07-07T22:14:31.212Z,105.10
2018-07-07T22:17:03.062Z,111.40
2018-07-07T22:19:34.877Z,106.10
2018-07-07T22:22:08.936Z,112.63
2018-07-07T22:24:42.260Z,101.77
2018-07-07T22:27:15.371Z,116.07
2018-07-07T22:29:48.690Z,111.47
2018-07-07T22:32:21.824Z,105.73
2018-07-07T22:34:54.807Z,113.07
2018-07-07T22:37:26.495Z,101.77
2018-07-07T22:39:58.603Z,104.33
2018-07-07T22:42:30.478Z,116.10
2018-07-07T22:45:03.072Z,97.07
2018-07-07T22:47:35.402Z,104.03
2018-07-07T22:50:07.492Z,112.07
2018-07-07T22:52:39.304Z,83.90
2018-07-07T22:55:11.397Z,110.80
2018-07-07T22:57:43.073Z,116.87
2018-07-07T23:00:15.199Z,120.63
2018-07-07T23:02:46.750Z,115.80
2018-07-07T23:05:18.791Z,107.80
2018-07-07T23:07:50.720Z,110.70
2018-07-07T23:10:22.952Z,124.97
2018-07-07T23:12:54.857Z,99.97
2018-07-07T23:15:26.760Z,116.53
2018-07-07T23:17:58.557Z,117.53
2018-07-07T23:20:30.774Z,122.53
2018-07-07T23:23:02.524Z,146.60
2018-07-07T23:25:34.543Z,116.30
2018-07-07T23:28:06.330Z,110.63
2018-07-07T23:30:39.640Z,89.80
2018-07-07T23:33:11.840Z,110.20
2018-07-07T23:35:43.938Z,103.93
2018-07-07T23:38:15.881Z,116.03
2018-07-07T23:40:47.762Z,121.57
2018-07-07T23:43:19.422Z,112.10
2018-07-07T23:45:52.021Z,92.83
2018-07-07T23:48:23.823Z,112.17
2018-07-07T23:50:56.452Z,107.47
2018-07-07T23:53:28.379Z,121.60
2018-07-07T23:56:00.655Z,105.57
2018-07-07T23:58:31.568Z,113.83
